createdAt,value
2022-09-15T00:58:06.588Z,19.20
2022-09-15T01:15:58.037Z,19.10
2022-09-15T01:34:41.832Z,18.90
2022-09-15T01:42:15.774Z,19.00
2022-09-15T01:44:55.007Z,19.00
2022-09-15T01:47:25.388Z,19.00
2022-09-15T01:50:01.638Z,18.90
2022-09-15T01:52:30.650Z,18.90
2022-09-15T01:55:03.616Z,18.90
2022-09-15T01:57:30.637Z,18.90
2022-09-15T01:59:57.688Z,18.90
2022-09-15T02:02:42.958Z,18.90
2022-09-15T02:05:34.335Z,18.80
2022-09-15T02:08:12.650Z,18.90
2022-09-15T02:14:24.109Z,18.80
2022-09-15T02:27:25.186Z,18.90
2022-09-15T02:29:56.270Z,18.90
2022-09-15T02:32:25.218Z,18.90
2022-09-15T02:34:55.441Z,19.00
2022-09-15T02:39:58.016Z,18.90
2022-09-15T02:42:26.545Z,18.90
2022-09-15T02:44:53.969Z,18.90
2022-09-15T02:47:21.461Z,18.80
2022-09-15T02:49:48.534Z,18.80
2022-09-15T02:52:15.829Z,18.80
2022-09-15T02:54:43.083Z,18.80
2022-09-15T02:57:10.140Z,18.80
2022-09-15T02:59:55.937Z,18.70
2022-09-15T03:02:23.643Z,18.80
2022-09-15T03:04:51.397Z,18.40
2022-09-15T03:07:19.446Z,18.80
2022-09-15T03:09:46.657Z,18.80
2022-09-15T03:12:13.961Z,18.80
2022-09-15T03:14:41.208Z,18.70
2022-09-15T03:17:08.646Z,18.70
2022-09-15T03:19:35.797Z,18.70
2022-09-15T03:22:03.240Z,18.60
2022-09-15T03:26:58.271Z,18.60
2022-09-15T03:29:25.648Z,18.80
2022-09-15T03:31:53.057Z,18.70
2022-09-15T03:34:20.823Z,18.60
2022-09-15T03:36:48.241Z,18.60
2022-09-15T03:39:15.994Z,18.60
2022-09-15T03:41:43.377Z,18.60
2022-09-15T03:44:10.910Z,18.70
2022-09-15T03:46:38.547Z,18.70
2022-09-15T03:49:05.786Z,18.60
2022-09-15T03:51:33.254Z,18.60
2022-09-15T03:54:00.630Z,18.70
2022-09-15T03:56:33.082Z,18.60
2022-09-15T03:59:05.630Z,18.50
2022-09-15T04:01:33.538Z,18.60
2022-09-15T04:04:01.164Z,18.70
2022-09-15T04:06:28.699Z,18.70
2022-09-15T04:08:56.188Z,18.80
2022-09-15T04:11:23.466Z,18.70
2022-09-15T04:13:52.533Z,18.70
2022-09-15T04:16:25.198Z,18.70
2022-09-15T04:21:23.140Z,18.70
2022-09-15T04:23:51.420Z,18.60
2022-09-15T04:26:28.717Z,18.70
2022-09-15T04:28:56.037Z,18.60
2022-09-15T04:31:23.485Z,18.70
2022-09-15T04:33:53.899Z,18.70
2022-09-15T04:36:23.913Z,18.80
2022-09-15T04:43:48.451Z,18.60
2022-09-15T04:48:46.260Z,18.60
2022-09-15T04:51:19.614Z,18.60
2022-09-15T04:53:47.491Z,18.70
2022-09-15T04:56:23.661Z,18.70
2022-09-15T04:58:57.354Z,18.60
2022-09-15T05:03:58.110Z,18.60
2022-09-15T05:06:27.394Z,18.60
2022-09-15T06:06:03.940Z,19.20
2022-09-15T06:21:13.697Z,19.60
2022-09-15T06:28:51.448Z,19.60
2022-09-15T06:31:19.421Z,19.70
2022-09-15T06:33:48.867Z,19.80
2022-09-15T06:38:44.393Z,19.80
2022-09-15T06:41:12.147Z,19.80
2022-09-15T06:48:38.241Z,19.70
2022-09-15T06:51:07.433Z,19.80
2022-09-15T06:53:37.432Z,19.70
2022-09-15T06:56:09.580Z,19.60
2022-09-15T06:58:38.657Z,19.60
2022-09-15T07:01:12.338Z,19.50
2022-09-15T07:06:10.058Z,19.30
2022-09-15T07:08:37.110Z,19.40
2022-09-15T07:11:04.353Z,19.40
2022-09-15T07:13:31.405Z,19.20
2022-09-15T07:16:00.754Z,19.20
2022-09-15T07:18:27.871Z,19.20
2022-09-15T07:21:03.255Z,19.00
2022-09-15T07:40:53.292Z,18.50
2022-09-15T07:43:20.383Z,18.60
2022-09-15T07:45:47.484Z,18.50
2022-09-15T07:48:14.577Z,18.60
2022-09-15T07:50:41.639Z,18.60
2022-09-15T07:53:08.558Z,18.60
2022-09-15T07:55:35.634Z,18.60
2022-09-15T07:58:03.699Z,18.70
2022-09-15T08:02:58.535Z,18.50
2022-09-15T08:05:28.664Z,18.60
2022-09-15T08:07:56.267Z,18.80
2022-09-15T08:10:25.335Z,18.90
2022-09-15T08:17:48.214Z,18.90
2022-09-15T08:20:15.364Z,19.40
2022-09-15T08:22:42.500Z,19.40
2022-09-15T08:25:09.811Z,19.50
2022-09-15T08:27:37.392Z,19.40
2022-09-15T08:30:06.193Z,19.20
2022-09-15T08:32:33.728Z,19.30
2022-09-15T08:35:00.705Z,19.40
2022-09-15T08:37:27.698Z,18.90
2022-09-15T08:39:54.795Z,19.30
2022-09-15T08:42:24.148Z,19.00
2022-09-15T08:45:01.963Z,19.00
2022-09-15T08:47:43.158Z,18.90
2022-09-15T08:50:35.277Z,18.90
2022-09-15T08:53:28.274Z,18.70
2022-09-15T09:03:49.475Z,18.80
2022-09-15T09:13:56.583Z,19.10
2022-09-15T09:16:57.509Z,19.00
2022-09-15T09:22:16.767Z,19.20
2022-09-15T09:24:47.505Z,19.20
2022-09-15T09:27:20.854Z,19.60
2022-09-15T09:30:01.643Z,19.70
2022-09-15T09:32:40.608Z,20.20
2022-09-15T09:35:24.870Z,20.30
2022-09-15T09:37:52.782Z,20.00
2022-09-15T09:40:20.994Z,20.00
2022-09-15T09:42:48.598Z,20.10
2022-09-15T10:00:41.026Z,18.90
2022-09-15T10:13:26.288Z,18.30
2022-09-15T10:15:57.204Z,18.50
2022-09-15T10:18:38.789Z,18.50
2022-09-15T10:26:22.783Z,18.60
2022-09-15T10:29:12.608Z,18.80
2022-09-15T10:47:32.987Z,18.70
2022-09-15T10:50:18.852Z,18.70
2022-09-15T10:53:11.224Z,18.90
2022-09-15T10:58:56.924Z,19.50
2022-09-15T11:17:17.013Z,18.90
2022-09-15T11:19:52.156Z,18.70
2022-09-15T11:25:03.825Z,19.00
2022-09-15T11:27:44.156Z,19.10
2022-09-15T11:43:34.148Z,18.60
2022-09-15T11:48:40.062Z,17.60
2022-09-15T11:51:07.826Z,17.60
2022-09-15T12:24:32.594Z,17.70
2022-09-15T12:27:01.750Z,17.90
2022-09-15T12:29:38.073Z,18.10
2022-09-15T12:53:46.218Z,17.90
2022-09-15T13:03:47.525Z,17.70
2022-09-15T13:06:23.489Z,17.80
2022-09-15T13:09:03.730Z,18.20
2022-09-15T13:16:37.818Z,18.50
2022-09-15T13:32:18.390Z,17.50
2022-09-15T13:59:08.210Z,20.30
2022-09-15T14:01:42.555Z,20.20
2022-09-15T14:04:17.009Z,20.10
2022-09-15T14:06:50.032Z,20.00
2022-09-15T14:09:35.270Z,20.00
2022-09-15T14:12:07.374Z,20.20
2022-09-15T14:14:40.422Z,20.00
2022-09-15T14:17:24.000Z,19.90
2022-09-15T14:19:53.876Z,20.00
2022-09-15T14:22:20.870Z,20.10
2022-09-15T14:24:47.883Z,19.80
2022-09-15T14:27:22.017Z,20.00
2022-09-15T14:29:51.548Z,20.20
2022-09-15T14:32:18.755Z,19.80
2022-09-15T14:39:56.643Z,20.10
2022-09-15T14:42:31.051Z,19.80
2022-09-15T14:50:33.139Z,19.50
2022-09-15T14:53:10.311Z,19.50
2022-09-15T14:58:18.418Z,19.20
2022-09-15T15:01:06.413Z,19.10
2022-09-15T15:03:48.710Z,19.10
2022-09-15T15:06:28.752Z,19.20
2022-09-15T15:09:22.580Z,19.20
2022-09-15T15:11:56.840Z,19.10
2022-09-15T15:14:23.990Z,19.10
2022-09-15T15:16:56.820Z,19.10
2022-09-15T15:19:41.978Z,18.80
2022-09-15T15:22:15.433Z,18.70
2022-09-15T15:24:48.049Z,18.60
2022-09-15T15:27:24.939Z,18.60
2022-09-15T15:29:52.830Z,18.40
2022-09-15T15:34:55.742Z,18.40
2022-09-15T15:37:34.230Z,18.40
2022-09-15T15:45:09.527Z,18.60
2022-09-15T16:02:57.870Z,18.40
2022-09-15T16:10:28.103Z,18.20
2022-09-15T16:58:08.121Z,17.70
2022-09-15T17:22:55.871Z,17.80
2022-09-15T17:25:31.004Z,17.80
2022-09-15T17:27:59.342Z,17.70
2022-09-15T17:30:31.477Z,17.60
2022-09-15T17:33:12.158Z,17.50
2022-09-15T17:35:39.406Z,17.30
2022-09-15T17:38:07.291Z,17.10
2022-09-15T17:40:35.637Z,17.10
2022-09-15T17:43:03.313Z,17.10
2022-09-15T17:45:37.021Z,17.10
2022-09-15T17:50:34.445Z,17.00
2022-09-15T17:53:01.533Z,16.90
2022-09-15T17:55:31.515Z,16.90
2022-09-15T18:05:26.229Z,16.80
2022-09-15T18:35:17.793Z,16.80
2022-09-15T18:37:47.800Z,16.50
2022-09-15T18:40:17.852Z,16.30
2022-09-15T18:42:45.861Z,16.30
2022-09-15T18:45:15.215Z,16.10
2022-09-15T19:17:21.623Z,15.80
2022-09-15T19:19:48.814Z,15.80
2022-09-15T19:24:43.335Z,15.50
2022-09-15T19:27:10.469Z,15.40
2022-09-15T19:32:09.234Z,15.30
2022-09-15T19:34:38.506Z,15.40
2022-09-15T19:42:09.301Z,15.40
2022-09-15T19:44:36.887Z,15.50
2022-09-15T19:47:04.222Z,15.60
2022-09-15T19:49:31.238Z,15.60
2022-09-15T19:51:58.296Z,15.40
2022-09-15T19:54:28.242Z,15.40
2022-09-15T19:56:56.305Z,15.30
2022-09-15T19:59:27.447Z,15.40
2022-09-15T20:01:57.377Z,15.30
2022-09-15T20:04:24.553Z,15.20
2022-09-15T20:06:51.868Z,15.10
2022-09-15T20:09:18.909Z,15.00
2022-09-15T20:11:46.015Z,14.80
2022-09-15T20:14:13.633Z,14.90
2022-09-15T20:16:40.658Z,14.90
2022-09-15T20:19:08.246Z,14.90
2022-09-15T20:21:52.756Z,14.90
2022-09-15T20:24:20.191Z,14.80
2022-09-15T20:26:47.580Z,15.20
2022-09-15T20:29:14.729Z,14.90
2022-09-15T20:31:42.528Z,14.90
2022-09-15T20:34:09.481Z,14.90
2022-09-15T20:36:38.839Z,14.80
2022-09-15T20:39:09.356Z,14.80
2022-09-15T20:41:36.984Z,14.80
2022-09-15T20:44:05.286Z,14.80
2022-09-15T20:46:32.382Z,14.90
2022-09-15T20:48:59.385Z,14.90
2022-09-15T20:51:31.456Z,14.90
2022-09-15T20:54:00.603Z,14.80
2022-09-15T20:56:30.039Z,14.90
2022-09-15T20:58:58.957Z,14.90
2022-09-15T21:01:28.452Z,14.90
2022-09-15T21:03:55.823Z,14.90
2022-09-15T21:06:25.041Z,14.90
2022-09-15T21:08:53.464Z,14.90
2022-09-15T21:11:21.445Z,14.90
2022-09-15T21:13:49.311Z,14.90
2022-09-15T21:16:20.549Z,14.90
2022-09-15T21:18:49.020Z,14.90
2022-09-15T21:21:23.708Z,14.90
2022-09-15T21:23:58.690Z,15.00
2022-09-15T21:26:27.797Z,14.90
2022-09-15T21:28:56.098Z,14.90
2022-09-15T21:31:26.202Z,14.90
2022-09-15T21:33:54.461Z,14.90
2022-09-15T21:36:24.600Z,14.80
2022-09-15T21:38:53.426Z,14.80
2022-09-15T21:41:23.345Z,14.80
2022-09-15T21:43:55.576Z,14.70
2022-09-15T21:46:28.394Z,14.70
2022-09-15T21:48:57.539Z,14.60
2022-09-15T21:51:26.130Z,14.60
2022-09-15T21:53:54.998Z,14.50
2022-09-15T21:56:23.052Z,14.40
2022-09-15T21:58:50.122Z,14.40
2022-09-15T22:01:19.817Z,14.40
2022-09-15T22:03:52.964Z,14.30
2022-09-15T22:06:22.568Z,14.30
2022-09-15T22:08:49.570Z,14.30
2022-09-15T22:11:16.728Z,14.30
2022-09-15T22:13:44.689Z,14.30
2022-09-15T22:16:17.363Z,14.30
2022-09-15T22:18:45.005Z,14.30
2022-09-15T22:21:15.259Z,14.30
2022-09-15T22:23:43.273Z,14.20
2022-09-15T22:26:18.816Z,14.30
2022-09-15T22:28:46.158Z,14.40
2022-09-15T22:31:15.432Z,14.40
2022-09-15T22:33:43.115Z,14.50
2022-09-15T22:36:18.707Z,14.50
2022-09-15T22:38:46.465Z,14.60
2022-09-15T22:41:16.131Z,14.40
2022-09-15T22:43:45.493Z,14.40
2022-09-15T22:46:12.594Z,14.40
2022-09-15T22:48:43.328Z,14.50
2022-09-15T22:51:12.132Z,14.40
2022-09-15T22:53:39.158Z,14.40
2022-09-15T22:56:09.140Z,14.40
2022-09-15T22:58:37.154Z,14.40
2022-09-15T23:01:06.593Z,14.40
2022-09-15T23:03:34.038Z,14.40
2022-09-15T23:06:01.357Z,14.30
2022-09-15T23:08:29.631Z,14.30
2022-09-15T23:11:08.811Z,14.20
2022-09-15T23:13:36.218Z,14.20
2022-09-15T23:16:04.081Z,14.20
2022-09-15T23:18:31.729Z,14.10
2022-09-15T23:21:00.472Z,14.10
2022-09-15T23:23:28.461Z,14.10
2022-09-15T23:25:55.931Z,14.10
2022-09-15T23:28:23.420Z,14.00
2022-09-15T23:30:54.832Z,14.00
2022-09-15T23:33:23.615Z,14.10
2022-09-15T23:35:50.839Z,14.00
2022-09-15T23:38:19.774Z,14.00
2022-09-15T23:40:48.400Z,13.80
2022-09-15T23:43:15.754Z,13.90
2022-09-15T23:45:43.628Z,13.90
2022-09-15T23:48:11.644Z,13.90
2022-09-15T23:50:39.561Z,13.90
2022-09-15T23:53:07.836Z,13.80
2022-09-15T23:55:35.885Z,13.80
2022-09-15T23:58:04.674Z,13.80
